Time;durP1;ratioP1;P1;durP2;ratioP2;P2;SDS_P1;SDS_P2;PMS_P1;PMS_P2;Temp;Humidity;BMP_temperature;BMP_pressure;BME280_temperature;BME280_humidity;BME280_pressure;Samples;Min_cycle;Max_cycle;Signal;HPM_P1;HPM_P2
2021/12/10 00:00:31;;;;;;;21.55;10.32;;;5.50;99.90;;;;;;5096033;28;20016;-42
2021/12/10 00:02:58;;;;;;;23.92;9.77;;;5.50;99.90;;;;;;5094722;28;20044;-44
2021/12/10 00:05:38;;;;;;;24.63;10.43;;;5.50;99.90;;;;;;5095457;28;20028;-43
2021/12/10 00:08:05;;;;;;;27.05;10.73;;;5.50;99.90;;;;;;5093502;28;20036;-44
2021/12/10 00:10:35;;;;;;;27.52;10.52;;;5.50;99.90;;;;;;5095116;28;20409;-43
2021/12/10 00:13:02;;;;;;;29.08;9.60;;;5.50;99.90;;;;;;5095726;28;20023;-42
2021/12/10 00:15:30;;;;;;;31.13;9.95;;;5.50;99.90;;;;;;5095302;28;20073;-45
2021/12/10 00:17:58;;;;;;;25.30;10.65;;;5.50;99.90;;;;;;5086772;28;20445;-44
2021/12/10 00:20:27;;;;;;;30.58;10.13;;;5.50;99.90;;;;;;5075223;28;20025;-44
2021/12/10 00:22:57;;;;;;;23.42;10.60;;;5.50;99.90;;;;;;5074721;28;20017;-45
2021/12/10 00:25:34;;;;;;;25.25;9.18;;;5.50;99.90;;;;;;5075202;28;20543;-44
2021/12/10 00:28:02;;;;;;;20.58;10.10;;;5.50;99.90;;;;;;5082672;28;20043;-42
2021/12/10 00:30:43;;;;;;;21.92;9.32;;;5.60;99.90;;;;;;5094777;28;20056;-44
2021/12/10 00:33:20;;;;;;;21.27;9.60;;;5.60;99.90;;;;;;5095394;28;20028;-43
2021/12/10 00:35:46;;;;;;;27.52;9.77;;;5.60;99.90;;;;;;5092823;28;20027;-43
2021/12/10 00:38:12;;;;;;;21.73;9.52;;;5.60;99.90;;;;;;5074431;28;20017;-43
2021/12/10 00:40:37;;;;;;;25.92;10.52;;;5.60;99.90;;;;;;5074838;28;20418;-42
2021/12/10 00:43:04;;;;;;;25.50;9.57;;;5.60;99.90;;;;;;5074840;28;20048;-43
2021/12/10 00:45:29;;;;;;;21.88;10.25;;;5.60;99.90;;;;;;5074139;28;20028;-42
2021/12/10 00:47:56;;;;;;;20.35;8.25;;;5.60;99.90;;;;;;5094709;28;20058;-45
2021/12/10 00:50:28;;;;;;;23.85;8.73;;;5.60;99.90;;;;;;5094827;28;20360;-44
2021/12/10 00:52:54;;;;;;;17.63;9.40;;;5.60;99.90;;;;;;5094310;28;20050;-43
2021/12/10 00:55:22;;;;;;;21.15;8.88;;;5.60;99.90;;;;;;5094788;28;20019;-43
2021/12/10 00:57:48;;;;;;;33.90;11.13;;;5.60;99.90;;;;;;5075239;28;20044;-42
2021/12/10 01:00:21;;;;;;;26.80;9.45;;;5.60;99.90;;;;;;5074045;28;20078;-44
2021/12/10 01:02:47;;;;;;;26.80;9.60;;;5.60;99.90;;;;;;5074507;28;20352;-42
2021/12/10 01:05:14;;;;;;;20.20;8.50;;;5.60;99.90;;;;;;5073557;28;20021;-42
2021/12/10 01:07:41;;;;;;;23.77;9.65;;;5.60;99.90;;;;;;5075874;28;20364;-43
2021/12/10 01:10:13;;;;;;;31.38;9.05;;;5.60;99.90;;;;;;5074045;28;20103;-43
2021/12/10 01:12:43;;;;;;;19.48;9.75;;;5.60;99.90;;;;;;5073700;28;20036;-43
2021/12/10 01:28:47;;;;;;;26.00;10.82;;;5.60;99.90;;;;;;5073882;28;20383;-42
2021/12/10 01:31:13;;;;;;;24.23;8.85;;;5.60;99.90;;;;;;5073777;28;20024;-43
2021/12/10 01:33:42;;;;;;;18.70;8.48;;;5.60;99.90;;;;;;5073270;28;20029;-44
2021/12/10 01:36:09;;;;;;;19.52;8.27;;;5.60;99.90;;;;;;5081355;28;20020;-43
2021/12/10 01:38:37;;;;;;;22.65;9.63;;;5.60;99.90;;;;;;5093978;28;20024;-43
2021/12/10 01:41:07;;;;;;;19.52;8.77;;;5.60;99.90;;;;;;5093166;28;20490;-43
2021/12/10 01:43:35;;;;;;;17.88;7.63;;;5.60;99.90;;;;;;5093849;28;20069;-42
2021/12/10 01:46:07;;;;;;;17.15;7.47;;;5.60;99.90;;;;;;5086369;28;20455;-43
2021/12/10 01:48:38;;;;;;;17.15;7.65;;;5.60;99.90;;;;;;5073080;28;20036;-44
2021/12/10 01:51:05;;;;;;;14.18;7.72;;;5.60;99.90;;;;;;5073438;28;20079;-42
2021/12/10 01:53:33;;;;;;;13.52;6.80;;;5.60;99.90;;;;;;5080142;28;20024;-43
2021/12/10 01:56:02;;;;;;;19.70;7.45;;;5.50;99.90;;;;;;5092511;28;20044;-44
2021/12/10 01:58:30;;;;;;;17.63;8.35;;;5.50;99.90;;;;;;5093571;28;20059;-44
2021/12/10 02:01:15;;;;;;;18.60;7.90;;;5.50;99.90;;;;;;5093605;28;20081;-43
2021/12/10 02:03:42;;;;;;;17.75;7.65;;;5.60;99.90;;;;;;5090913;28;20055;-44
2021/12/10 02:06:09;;;;;;;24.02;7.28;;;5.50;99.90;;;;;;5093505;28;20108;-43
2021/12/10 02:08:36;;;;;;;14.30;6.93;;;5.50;99.90;;;;;;5092809;28;20081;-42
2021/12/10 02:11:03;;;;;;;17.50;6.55;;;5.50;99.90;;;;;;5093468;28;20643;-44
2021/12/10 02:13:28;;;;;;;15.32;7.82;;;5.50;99.90;;;;;;5087031;28;20024;-43
2021/12/10 02:15:55;;;;;;;12.65;7.50;;;5.50;99.90;;;;;;5072743;28;20021;-43
2021/12/10 02:18:21;;;;;;;17.80;8.35;;;5.50;99.90;;;;;;5073085;28;20028;-45
2021/12/10 02:21:03;;;;;;;19.42;7.60;;;5.50;99.90;;;;;;5072851;28;20024;-43
2021/12/10 02:23:33;;;;;;;15.57;6.85;;;5.50;99.90;;;;;;5077753;28;20024;-43
2021/12/10 02:26:01;;;;;;;14.77;7.22;;;5.50;99.90;;;;;;5093172;28;20456;-44
2021/12/10 02:28:27;;;;;;;20.45;7.45;;;5.50;99.90;;;;;;5093113;28;20028;-43
2021/12/10 02:30:54;;;;;;;15.52;6.80;;;5.50;99.90;;;;;;5090678;28;20032;-44
2021/12/10 02:33:20;;;;;;;13.75;6.82;;;5.50;99.90;;;;;;5093105;28;20032;-43
2021/12/10 02:35:46;;;;;;;18.45;6.40;;;5.50;99.90;;;;;;5093139;28;20119;-43
2021/12/10 02:38:16;;;;;;;16.52;7.28;;;5.50;99.90;;;;;;5092698;28;20526;-43
2021/12/10 02:40:42;;;;;;;25.05;8.23;;;5.40;99.90;;;;;;5083084;28;20563;-42
2021/12/10 02:43:11;;;;;;;17.95;5.55;;;5.40;99.90;;;;;;5072905;28;20487;-43
2021/12/10 02:45:38;;;;;;;14.73;6.70;;;5.40;99.90;;;;;;5072298;28;20024;-44
2021/12/10 02:48:05;;;;;;;17.35;6.88;;;5.50;99.90;;;;;;5072706;28;20414;-45
2021/12/10 02:50:32;;;;;;;17.63;6.03;;;5.40;99.90;;;;;;5079718;28;20028;-44
2021/12/10 02:52:59;;;;;;;18.38;6.28;;;5.50;99.90;;;;;;5092981;28;20058;-43
2021/12/10 02:55:25;;;;;;;18.60;6.80;;;5.50;99.90;;;;;;5092829;28;20024;-43
2021/12/10 02:57:55;;;;;;;15.75;5.75;;;5.40;99.90;;;;;;5092175;28;20529;-43
2021/12/10 03:00:29;;;;;;;14.00;6.70;;;5.40;99.90;;;;;;5083631;28;20029;-42
2021/12/10 03:02:55;;;;;;;18.75;6.50;;;5.50;99.90;;;;;;5072697;28;20021;-43
2021/12/10 03:05:21;;;;;;;18.23;8.00;;;5.50;99.90;;;;;;5071993;28;20017;-42
2021/12/10 03:07:47;;;;;;;20.02;6.80;;;5.40;99.90;;;;;;5072543;28;20041;-44
2021/12/10 03:10:17;;;;;;;17.10;6.85;;;5.50;99.90;;;;;;5078053;28;20016;-43
2021/12/10 03:12:43;;;;;;;21.02;7.30;;;5.40;99.90;;;;;;5072037;28;20112;-42
2021/12/10 03:15:10;;;;;;;18.25;6.97;;;5.40;99.90;;;;;;5072554;28;20020;-42
2021/12/10 03:17:36;;;;;;;22.70;6.63;;;5.40;99.90;;;;;;5072468;28;20028;-43
2021/12/10 03:20:06;;;;;;;14.57;6.45;;;5.40;99.90;;;;;;5080265;28;20016;-43
2021/12/10 03:22:32;;;;;;;16.38;6.78;;;5.40;99.90;;;;;;5092647;28;20512;-43
2021/12/10 03:24:58;;;;;;;14.70;6.30;;;5.50;99.90;;;;;;5092777;28;20016;-44
2021/12/10 03:27:24;;;;;;;21.92;6.20;;;5.50;99.90;;;;;;5092070;28;20028;-45
2021/12/10 03:29:52;;;;;;;20.00;7.63;;;5.50;99.90;;;;;;5085684;28;20371;-43
2021/12/10 03:32:21;;;;;;;23.80;8.77;;;5.50;99.90;;;;;;5072525;28;20017;-42
2021/12/10 03:34:47;;;;;;;20.08;8.35;;;5.40;99.90;;;;;;5071893;28;20025;-43
2021/12/10 03:37:17;;;;;;;24.20;8.80;;;5.40;99.90;;;;;;5072505;28;20016;-43
2021/12/10 03:39:43;;;;;;;26.75;9.73;;;5.40;99.90;;;;;;5072763;28;20483;-46
2021/12/10 03:42:09;;;;;;;23.65;9.65;;;5.40;99.90;;;;;;5075430;28;20032;-43
2021/12/10 03:44:37;;;;;;;20.10;9.82;;;5.40;99.90;;;;;;5075741;28;20025;-42
2021/12/10 03:47:08;;;;;;;19.20;9.20;;;5.40;99.90;;;;;;5075208;28;20131;-42
2021/12/10 03:49:35;;;;;;;18.73;8.98;;;5.40;99.90;;;;;;5079309;28;20035;-42
2021/12/10 03:52:01;;;;;;;22.13;9.00;;;5.40;99.90;;;;;;5096073;28;20016;-42
2021/12/10 03:54:27;;;;;;;20.52;9.40;;;5.40;99.90;;;;;;5095457;28;20186;-44
2021/12/10 03:56:53;;;;;;;21.10;9.45;;;5.30;99.90;;;;;;5095630;28;20094;-43
2021/12/10 03:59:21;;;;;;;20.60;9.50;;;5.30;99.90;;;;;;5094252;28;20407;-44
2021/12/10 04:01:50;;;;;;;19.98;9.55;;;5.30;99.90;;;;;;5075049;28;20487;-43
2021/12/10 04:04:20;;;;;;;23.27;10.32;;;5.30;99.90;;;;;;5075673;28;20020;-42
2021/12/10 04:06:47;;;;;;;20.17;8.98;;;5.30;99.90;;;;;;5075451;28;20058;-47
2021/12/10 04:09:13;;;;;;;18.35;8.80;;;5.20;99.90;;;;;;5075066;28;20024;-44
2021/12/10 04:11:40;;;;;;;21.05;9.30;;;5.20;99.90;;;;;;5095689;28;20016;-42
2021/12/10 04:14:06;;;;;;;15.25;7.40;;;5.30;99.90;;;;;;5095622;28;20045;-42
2021/12/10 04:16:34;;;;;;;18.75;9.05;;;5.20;99.90;;;;;;5095051;28;20367;-43
2021/12/10 04:19:02;;;;;;;13.75;7.25;;;5.20;99.90;;;;;;5095567;28;20043;-42
2021/12/10 04:21:28;;;;;;;27.27;8.43;;;5.20;99.90;;;;;;5075878;28;20023;-43
2021/12/10 04:23:54;;;;;;;16.73;7.40;;;5.10;99.90;;;;;;5074665;28;20062;-43
2021/12/10 04:26:23;;;;;;;16.75;8.50;;;5.10;99.90;;;;;;5075027;28;20060;-45
2021/12/10 04:28:49;;;;;;;17.15;7.95;;;5.10;99.90;;;;;;5075054;28;20059;-43
2021/12/10 04:31:14;;;;;;;17.08;8.82;;;5.00;99.90;;;;;;5090180;28;20024;-44
2021/12/10 04:33:40;;;;;;;21.98;8.02;;;4.90;99.90;;;;;;5095263;28;20020;-43
2021/12/10 04:36:07;;;;;;;19.50;8.15;;;4.80;99.90;;;;;;5094894;28;20666;-43
2021/12/10 04:38:33;;;;;;;16.60;7.35;;;4.70;99.90;;;;;;5095063;28;20023;-43
2021/12/10 04:41:04;;;;;;;18.13;7.85;;;4.70;99.90;;;;;;5081257;28;20104;-42
2021/12/10 04:43:32;;;;;;;16.17;7.28;;;4.60;99.90;;;;;;5074387;28;20103;-43
2021/12/10 04:45:59;;;;;;;18.03;7.73;;;4.50;99.90;;;;;;5074781;28;20027;-43
2021/12/10 04:48:27;;;;;;;17.45;7.80;;;4.50;99.90;;;;;;5079363;28;20123;-43
2021/12/10 04:50:53;;;;;;;13.80;7.47;;;4.50;99.90;;;;;;5093633;28;20020;-42
2021/12/10 04:53:19;;;;;;;20.65;7.97;;;4.40;99.90;;;;;;5093055;28;20024;-43
2021/12/10 04:55:45;;;;;;;20.30;8.88;;;4.40;99.90;;;;;;5093564;28;20076;-44
2021/12/10 04:58:12;;;;;;;25.27;9.25;;;4.30;99.90;;;;;;5090596;28;20025;-43
2021/12/10 05:00:45;;;;;;;16.00;7.90;;;4.30;99.90;;;;;;5093646;28;20074;-42
2021/12/10 05:03:12;;;;;;;15.80;8.20;;;4.30;99.90;;;;;;5094175;28;20028;-42
2021/12/10 05:05:40;;;;;;;20.30;8.75;;;4.30;99.90;;;;;;5093233;28;20089;-43
2021/12/10 05:08:07;;;;;;;15.50;7.93;;;4.20;99.90;;;;;;5092054;28;20060;-43
2021/12/10 05:10:33;;;;;;;23.85;8.88;;;4.20;99.90;;;;;;5073549;28;20023;-42
2021/12/10 05:12:59;;;;;;;16.63;8.30;;;4.20;99.90;;;;;;5073321;28;20414;-44
2021/12/10 05:15:28;;;;;;;19.35;8.25;;;4.10;99.90;;;;;;5073508;28;20107;-43
2021/12/10 05:17:55;;;;;;;18.92;8.25;;;4.10;99.90;;;;;;5076055;28;20009;-42
2021/12/10 05:20:30;;;;;;;17.88;9.02;;;4.10;99.90;;;;;;5092906;28;20036;-42
2021/12/10 05:22:56;;;;;;;17.92;8.27;;;4.10;99.90;;;;;;5093674;28;20066;-43
2021/12/10 05:25:27;;;;;;;13.38;7.10;;;4.10;99.90;;;;;;5092988;28;20024;-43
2021/12/10 05:27:53;;;;;;;19.35;9.05;;;4.00;99.90;;;;;;5092974;28;20043;-43
2021/12/10 05:30:22;;;;;;;19.38;8.50;;;4.00;99.90;;;;;;5073417;28;20025;-42
2021/12/10 05:32:48;;;;;;;12.50;6.90;;;4.00;99.90;;;;;;5072564;28;20051;-43
2021/12/10 05:35:14;;;;;;;15.52;7.93;;;3.90;99.90;;;;;;5073210;28;20028;-42
2021/12/10 05:37:40;;;;;;;16.15;7.22;;;3.90;99.90;;;;;;5075637;28;20046;-43
2021/12/10 05:40:11;;;;;;;18.20;7.55;;;3.90;99.90;;;;;;5092828;28;20536;-45
2021/12/10 05:42:36;;;;;;;14.65;7.40;;;3.90;99.90;;;;;;5093361;28;20058;-44
2021/12/10 05:45:04;;;;;;;12.45;6.07;;;3.90;99.90;;;;;;5093252;28;20020;-44
2021/12/10 05:47:29;;;;;;;12.30;6.10;;;3.90;99.90;;;;;;5090668;28;20425;-43
2021/12/10 05:49:55;;;;;;;10.43;6.00;;;3.90;99.90;;;;;;5072745;28;20032;-43
2021/12/10 05:52:21;;;;;;;11.05;6.78;;;3.80;99.90;;;;;;5072565;28;20020;-43
2021/12/10 05:54:47;;;;;;;14.35;6.28;;;3.80;99.90;;;;;;5072126;28;20541;-43
2021/12/10 05:57:12;;;;;;;11.30;5.28;;;3.80;99.90;;;;;;5072388;28;20048;-44
2021/12/10 05:59:38;;;;;;;13.65;6.00;;;3.80;99.90;;;;;;5073583;28;20028;-42
2021/12/10 06:02:04;;;;;;;11.98;6.25;;;3.70;99.90;;;;;;5072061;28;20506;-43
2021/12/10 06:04:29;;;;;;;13.85;6.38;;;3.70;99.90;;;;;;5072234;28;20588;-43
2021/12/10 06:06:56;;;;;;;14.60;5.78;;;3.60;99.90;;;;;;5072462;28;20036;-42
2021/12/10 06:09:23;;;;;;;15.55;5.93;;;3.60;99.90;;;;;;5087987;28;20031;-44
2021/12/10 06:11:49;;;;;;;14.30;6.57;;;3.50;99.90;;;;;;5092773;28;20023;-43
2021/12/10 06:14:15;;;;;;;10.90;6.53;;;3.50;99.90;;;;;;5092458;28;20110;-42
2021/12/10 06:16:41;;;;;;;13.35;6.18;;;3.40;99.90;;;;;;5096096;28;20094;-44
2021/12/10 06:19:07;;;;;;;12.38;5.78;;;3.40;99.90;;;;;;5089282;28;20026;-43
2021/12/10 06:21:33;;;;;;;12.32;5.97;;;3.30;99.90;;;;;;5091558;28;20056;-43
2021/12/10 06:24:00;;;;;;;12.57;6.85;;;3.30;99.90;;;;;;5092053;28;20494;-43
2021/12/10 06:26:26;;;;;;;10.30;4.57;;;3.30;99.90;;;;;;5092013;28;20479;-43
2021/12/10 06:28:52;;;;;;;15.98;7.10;;;3.20;99.90;;;;;;5091048;28;20752;-44
2021/12/10 06:31:20;;;;;;;13.55;5.90;;;3.20;99.90;;;;;;5092389;28;20020;-44
2021/12/10 06:33:46;;;;;;;17.45;5.43;;;3.10;99.90;;;;;;5092480;28;20020;-43
2021/12/10 06:36:12;;;;;;;11.40;5.63;;;3.10;99.90;;;;;;5091883;28;20689;-43
2021/12/10 06:38:38;;;;;;;14.13;6.53;;;3.10;99.90;;;;;;5082391;28;20020;-44
2021/12/10 06:41:05;;;;;;;13.10;5.88;;;3.00;99.90;;;;;;5077785;28;20024;-42
2021/12/10 06:43:31;;;;;;;9.63;5.43;;;3.00;99.90;;;;;;5090421;28;20090;-43
2021/12/10 06:46:00;;;;;;;9.75;4.78;;;3.00;99.90;;;;;;5091473;28;20410;-42
2021/12/10 06:48:27;;;;;;;14.63;5.95;;;2.90;99.90;;;;;;5088349;28;20470;-43
2021/12/10 06:50:57;;;;;;;14.77;6.05;;;2.90;99.90;;;;;;5090585;28;20024;-43
2021/12/10 06:53:25;;;;;;;15.80;7.85;;;2.90;99.90;;;;;;5090718;28;20028;-43
2021/12/10 06:55:51;;;;;;;13.00;8.82;;;2.80;99.90;;;;;;5088446;28;20047;-43
2021/12/10 06:58:18;;;;;;;10.93;5.90;;;2.80;99.90;;;;;;5089246;28;20020;-43
2021/12/10 07:00:52;;;;;;;14.00;6.55;;;2.80;99.90;;;;;;5090782;28;20020;-43
2021/12/10 07:03:20;;;;;;;11.30;6.13;;;2.80;99.90;;;;;;5090885;28;20032;-43
2021/12/10 07:05:47;;;;;;;12.48;5.30;;;2.70;99.90;;;;;;5090384;28;20016;-43
2021/12/10 07:08:14;;;;;;;18.15;5.72;;;2.70;99.90;;;;;;5089755;28;20020;-42
2021/12/10 07:10:40;;;;;;;10.88;5.57;;;2.70;99.90;;;;;;5086885;28;20070;-42
2021/12/10 07:13:06;;;;;;;14.85;6.72;;;2.60;99.90;;;;;;5100736;28;20024;-45
2021/12/10 07:15:38;;;;;;;13.27;5.38;;;2.60;99.90;;;;;;5100303;28;20020;-42
2021/12/10 07:18:04;;;;;;;9.20;4.88;;;2.60;99.90;;;;;;5104114;28;20034;-43
2021/12/10 07:20:30;;;;;;;11.90;5.18;;;2.60;99.90;;;;;;5104528;28;20031;-44
2021/12/10 07:22:55;;;;;;;32.33;14.70;;;2.60;99.90;;;;;;5101950;28;20562;-43
2021/12/10 07:25:21;;;;;;;18.98;9.95;;;2.60;99.90;;;;;;5093659;28;20074;-43
2021/12/10 07:27:51;;;;;;;13.85;6.57;;;2.50;99.90;;;;;;5094359;28;20036;-43
2021/12/10 07:30:19;;;;;;;14.77;7.13;;;2.50;99.90;;;;;;5094477;28;20012;-42
2021/12/10 07:32:44;;;;;;;9.10;5.20;;;2.50;99.90;;;;;;5094182;28;20375;-42
2021/12/10 07:35:10;;;;;;;8.98;5.63;;;2.50;99.90;;;;;;5094460;28;20592;-43
2021/12/10 07:37:37;;;;;;;11.80;6.32;;;2.50;99.90;;;;;;5091464;28;20434;-42
2021/12/10 07:40:10;;;;;;;11.38;6.43;;;2.50;99.90;;;;;;5093198;28;20093;-43
2021/12/10 07:42:35;;;;;;;13.95;4.35;;;2.50;99.90;;;;;;5091108;28;20020;-42
2021/12/10 07:45:02;;;;;;;9.57;5.95;;;2.50;99.90;;;;;;5093637;28;20023;-43
2021/12/10 07:47:33;;;;;;;11.48;5.22;;;2.50;99.90;;;;;;5092784;28;20081;-42
2021/12/10 07:49:59;;;;;;;8.80;5.32;;;2.50;99.90;;;;;;5093792;28;20035;-43
2021/12/10 07:52:27;;;;;;;11.80;5.55;;;2.50;99.90;;;;;;5092221;28;20024;-43
2021/12/10 07:54:54;;;;;;;8.63;4.65;;;2.50;99.90;;;;;;5091205;28;20048;-43
2021/12/10 07:57:22;;;;;;;7.38;4.35;;;2.50;99.90;;;;;;5093533;28;20048;-45
2021/12/10 07:59:49;;;;;;;8.73;4.87;;;2.50;99.90;;;;;;5094058;28;20024;-43
2021/12/10 08:02:16;;;;;;;7.18;4.10;;;2.50;99.90;;;;;;5093300;28;20280;-42
2021/12/10 08:04:42;;;;;;;9.55;4.90;;;2.50;99.90;;;;;;5092023;28;20027;-43
2021/12/10 08:07:08;;;;;;;13.80;5.22;;;2.50;99.90;;;;;;5093081;28;20375;-42
2021/12/10 08:09:33;;;;;;;11.90;5.43;;;2.50;99.90;;;;;;5093441;28;20030;-42
2021/12/10 08:11:59;;;;;;;8.05;3.90;;;2.50;99.90;;;;;;5093793;28;20091;-42
2021/12/10 08:14:24;;;;;;;9.68;4.78;;;2.60;99.90;;;;;;5092157;28;20035;-43
2021/12/10 08:16:50;;;;;;;14.43;4.60;;;2.60;99.90;;;;;;5093654;28;20016;-44
2021/12/10 08:19:16;;;;;;;11.60;5.10;;;2.60;99.90;;;;;;5093454;28;20023;-43
2021/12/10 08:21:43;;;;;;;8.45;4.90;;;2.70;99.90;;;;;;5093024;28;20333;-43
2021/12/10 08:24:09;;;;;;;7.15;3.78;;;2.70;99.90;;;;;;5089245;28;20047;-42
2021/12/10 08:26:36;;;;;;;11.43;3.80;;;2.70;99.90;;;;;;5093223;28;20383;-42
2021/12/10 08:29:04;;;;;;;7.65;4.63;;;2.80;99.90;;;;;;5090934;28;20021;-43
2021/12/10 08:31:31;;;;;;;12.10;4.70;;;2.80;99.90;;;;;;5092650;28;20536;-44
2021/12/10 08:33:56;;;;;;;10.35;3.92;;;2.80;99.90;;;;;;5093566;28;20017;-43
2021/12/10 08:36:24;;;;;;;12.75;4.60;;;2.90;99.90;;;;;;5091050;28;20056;-45
2021/12/10 08:38:50;;;;;;;8.48;4.10;;;3.00;99.90;;;;;;5092612;28;20028;-43
2021/12/10 08:41:22;;;;;;;7.72;3.85;;;3.00;99.90;;;;;;5093425;28;20065;-43
2021/12/10 08:43:48;;;;;;;12.18;4.13;;;3.00;99.90;;;;;;5091425;28;20024;-42
2021/12/10 08:46:15;;;;;;;8.18;3.75;;;3.10;99.90;;;;;;5092821;28;20016;-42
2021/12/10 08:48:43;;;;;;;42.20;16.98;;;3.10;99.90;;;;;;5075048;28;20013;-44
2021/12/10 08:51:14;;;;;;;12.00;5.65;;;3.10;99.90;;;;;;5073340;28;20024;-45
2021/12/10 08:53:41;;;;;;;8.43;6.15;;;3.20;99.90;;;;;;5073784;28;20475;-42
2021/12/10 08:56:07;;;;;;;10.57;5.13;;;3.20;99.90;;;;;;5073439;28;20052;-44
2021/12/10 08:58:33;;;;;;;6.97;4.50;;;3.30;99.90;;;;;;5074074;28;20472;-43
2021/12/10 09:01:04;;;;;;;9.43;5.53;;;3.20;99.90;;;;;;5073942;28;20104;-42
2021/12/10 09:03:30;;;;;;;9.43;4.75;;;3.30;99.90;;;;;;5072897;28;20066;-43
2021/12/10 09:05:55;;;;;;;9.35;4.35;;;3.30;99.90;;;;;;5073841;28;20041;-43
2021/12/10 09:08:21;;;;;;;11.10;5.20;;;3.30;99.90;;;;;;5087183;28;20032;-43
2021/12/10 09:10:47;;;;;;;7.93;4.53;;;3.40;99.90;;;;;;5093604;28;20016;-43
2021/12/10 09:13:16;;;;;;;8.02;4.40;;;3.40;99.90;;;;;;5093406;28;20097;-43
2021/12/10 09:15:45;;;;;;;12.93;4.28;;;3.40;99.90;;;;;;5093688;28;20082;-42
2021/12/10 09:18:10;;;;;;;7.35;3.92;;;3.40;99.90;;;;;;5080815;28;20020;-42
2021/12/10 09:20:39;;;;;;;8.13;3.50;;;3.50;99.90;;;;;;5073326;28;20387;-43
2021/12/10 09:23:07;;;;;;;9.30;3.92;;;3.50;99.90;;;;;;5073539;28;20025;-43
2021/12/10 09:25:34;;;;;;;10.38;4.57;;;3.50;99.90;;;;;;5072565;28;20123;-43
2021/12/10 09:28:00;;;;;;;6.55;3.63;;;3.60;99.90;;;;;;5074160;28;20043;-45
2021/12/10 09:30:28;;;;;;;9.70;4.13;;;3.60;99.90;;;;;;5072738;28;20107;-43
2021/12/10 09:32:53;;;;;;;7.13;4.13;;;3.70;99.90;;;;;;5072586;28;20025;-45
2021/12/10 09:35:22;;;;;;;11.63;3.97;;;3.70;99.90;;;;;;5085026;28;20024;-43
2021/12/10 09:37:48;;;;;;;12.65;4.65;;;3.80;99.90;;;;;;5090945;28;20035;-44
2021/12/10 09:40:19;;;;;;;9.40;4.28;;;3.80;99.90;;;;;;5089866;28;20073;-44
2021/12/10 09:42:46;;;;;;;11.23;4.90;;;3.90;99.90;;;;;;5091448;28;20028;-43
2021/12/10 09:45:14;;;;;;;11.25;4.10;;;4.00;99.90;;;;;;5090349;28;20578;-43
2021/12/10 09:47:40;;;;;;;9.57;5.35;;;4.00;99.90;;;;;;5089305;28;20089;-44
2021/12/10 09:50:09;;;;;;;11.27;4.10;;;4.00;99.90;;;;;;5091314;28;20020;-43
2021/12/10 09:52:35;;;;;;;6.10;3.53;;;4.10;99.90;;;;;;5090142;28;20059;-43
2021/12/10 09:55:02;;;;;;;6.47;3.72;;;4.20;99.90;;;;;;5091835;28;20036;-43
2021/12/10 09:57:32;;;;;;;8.43;3.95;;;4.20;99.90;;;;;;5091052;28;20531;-43
2021/12/10 10:00:00;;;;;;;7.63;3.55;;;4.30;99.90;;;;;;5088165;28;20057;-42
2021/12/10 10:02:26;;;;;;;10.73;3.72;;;4.40;99.90;;;;;;5090725;28;20063;-44
2021/12/10 10:04:54;;;;;;;11.95;3.83;;;4.50;99.90;;;;;;5091504;28;20051;-43
2021/12/10 10:07:28;;;;;;;6.03;3.42;;;4.60;99.90;;;;;;5091287;28;20036;-43
2021/12/10 10:09:57;;;;;;;10.75;4.32;;;4.60;99.90;;;;;;5092258;28;20052;-43
2021/12/10 10:12:31;;;;;;;9.20;4.28;;;4.70;99.90;;;;;;5089987;28;20417;-43
2021/12/10 10:14:59;;;;;;;8.55;3.58;;;4.80;99.90;;;;;;5092287;28;20039;-44
2021/12/10 10:17:25;;;;;;;9.40;3.47;;;4.80;99.90;;;;;;5092526;28;20012;-44
2021/12/10 10:19:52;;;;;;;6.93;3.35;;;4.90;99.90;;;;;;5092696;28;20453;-43
2021/12/10 10:22:23;;;;;;;7.15;3.50;;;4.90;99.90;;;;;;5090158;28;20038;-44
2021/12/10 10:24:49;;;;;;;8.45;4.10;;;5.00;99.90;;;;;;5091188;28;20154;-44
2021/12/10 10:27:20;;;;;;;6.00;3.25;;;5.10;99.90;;;;;;5091604;28;20506;-43
2021/12/10 10:29:52;;;;;;;5.90;4.07;;;5.10;99.90;;;;;;5091706;28;20052;-43
2021/12/10 10:32:23;;;;;;;6.95;3.47;;;5.20;99.90;;;;;;5085604;28;20062;-43
2021/12/10 10:34:58;;;;;;;11.20;3.70;;;5.20;99.90;;;;;;5080699;28;20028;-43
2021/12/10 10:37:24;;;;;;;6.63;3.53;;;5.30;99.90;;;;;;5092170;28;20024;-43
2021/12/10 10:39:51;;;;;;;5.80;3.15;;;5.40;99.90;;;;;;5075616;28;20021;-43
2021/12/10 10:42:21;;;;;;;7.55;3.20;;;5.40;99.90;;;;;;5071357;28;20476;-44
2021/12/10 10:44:48;;;;;;;7.97;3.70;;;5.50;99.90;;;;;;5072325;28;20040;-43
2021/12/10 10:47:14;;;;;;;5.70;3.53;;;5.60;99.90;;;;;;5071862;28;20027;-44
2021/12/10 10:49:48;;;;;;;4.82;3.25;;;5.70;99.90;;;;;;5075363;28;20029;-43
2021/12/10 10:52:36;;;;;;;6.50;3.13;;;5.70;99.90;;;;;;5094397;28;20166;-43
2021/12/10 10:55:10;;;;;;;4.45;2.60;;;5.80;99.90;;;;;;5096352;28;20027;-43
2021/12/10 10:57:39;;;;;;;7.35;3.40;;;5.80;99.90;;;;;;5091319;28;20063;-43
2021/12/10 11:00:17;;;;;;;;;;;5.80;99.90;;;;;;5096485;28;21332;-45
2021/12/10 11:02:52;;;;;;;6.15;2.42;;;5.80;99.90;;;;;;5095808;28;19904;-43
2021/12/10 11:05:21;;;;;;;5.25;2.85;;;5.90;99.90;;;;;;5092776;28;20566;-44
2021/12/10 11:07:58;;;;;;;4.95;2.72;;;5.90;99.90;;;;;;5094129;28;20065;-43
2021/12/10 11:10:40;;;;;;;4.95;2.67;;;6.00;99.90;;;;;;5095043;28;20024;-43
2021/12/10 11:13:21;;;;;;;6.65;3.25;;;6.10;99.90;;;;;;5096310;28;20127;-43
2021/12/10 11:16:06;;;;;;;5.05;2.53;;;6.10;99.90;;;;;;5094830;28;20111;-44
2021/12/10 11:19:06;;;;;;;8.10;2.97;;;6.20;99.90;;;;;;5091796;28;20354;-45
2021/12/10 11:21:45;;;;;;;4.57;2.65;;;6.20;99.90;;;;;;5092890;28;20363;-43
2021/12/10 11:24:20;;;;;;;4.78;2.95;;;6.30;99.90;;;;;;5092282;28;20020;-43
2021/12/10 11:26:51;;;;;;;7.72;3.00;;;6.30;99.90;;;;;;5094879;28;20024;-44
2021/12/10 11:29:32;;;;;;;3.95;2.38;;;6.30;99.90;;;;;;5095727;28;20028;-43
2021/12/10 11:32:06;;;;;;;7.95;2.97;;;6.40;99.90;;;;;;5095403;28;20108;-43
2021/12/10 11:34:39;;;;;;;7.15;3.47;;;6.50;99.90;;;;;;5095759;28;20097;-42
2021/12/10 11:37:04;;;;;;;6.05;2.72;;;6.50;99.90;;;;;;5095477;28;20027;-44
2021/12/10 11:39:43;;;;;;;4.10;2.10;;;6.50;99.90;;;;;;5093796;28;20020;-44
2021/12/10 11:42:41;;;;;;;8.02;3.08;;;6.50;99.90;;;;;;5089977;28;20024;-47
2021/12/10 11:45:42;;;;;;;4.75;2.20;;;6.60;99.90;;;;;;5091384;28;20032;-44
2021/12/10 11:48:12;;;;;;;3.75;2.10;;;6.70;99.90;;;;;;5093062;28;20032;-45
2021/12/10 11:50:57;;;;;;;4.63;2.72;;;6.70;99.90;;;;;;5093309;28;20029;-43
2021/12/10 11:53:22;;;;;;;5.53;2.10;;;6.70;99.90;;;;;;5093637;28;20024;-44
2021/12/10 11:56:02;;;;;;;4.93;2.83;;;6.70;99.90;;;;;;5095243;28;20423;-44
2021/12/10 11:58:28;;;;;;;4.22;2.15;;;6.80;99.90;;;;;;5075227;28;20025;-44
2021/12/10 12:00:54;;;;;;;6.78;2.70;;;6.80;99.90;;;;;;5074377;28;20027;-43
2021/12/10 12:03:21;;;;;;;4.20;2.45;;;6.90;99.90;;;;;;5074487;28;20023;-45
2021/12/10 12:05:49;;;;;;;3.42;2.03;;;6.90;99.90;;;;;;5075057;28;20077;-43
2021/12/10 12:08:18;;;;;;;5.63;2.22;;;7.00;99.90;;;;;;5074136;28;20039;-44
2021/12/10 12:11:00;;;;;;;;;;;7.00;99.90;;;;;;5082629;28;20024;-45
2021/12/10 12:13:43;;;;;;;3.17;1.92;;;7.00;99.90;;;;;;5092203;28;20370;-44
2021/12/10 12:16:17;;;;;;;4.38;2.42;;;7.10;99.90;;;;;;5093617;28;20028;-42
2021/12/10 12:18:48;;;;;;;7.35;2.38;;;7.10;99.90;;;;;;5092419;28;20021;-44
2021/12/10 12:21:37;;;;;;;6.47;2.10;;;7.20;99.90;;;;;;5093706;28;20028;-43
2021/12/10 12:27:09;;;;;;;5.63;2.03;;;7.10;99.90;;;;;;5094321;28;19955;-43
2021/12/10 12:29:36;;;;;;;8.82;2.05;;;7.10;99.90;;;;;;5093980;28;20335;-43
2021/12/10 12:32:12;;;;;;;3.07;2.20;;;7.00;99.90;;;;;;5094653;28;20479;-43
2021/12/10 12:34:38;;;;;;;5.50;2.50;;;7.00;99.90;;;;;;5093991;28;20031;-43
2021/12/10 12:37:07;;;;;;;6.60;2.30;;;7.00;99.90;;;;;;5094787;28;20008;-44
2021/12/10 12:39:40;;;;;;;5.25;1.90;;;7.00;99.90;;;;;;5091266;28;20107;-42
2021/12/10 12:42:33;;;;;;;4.47;2.20;;;6.90;99.90;;;;;;5073874;28;20028;-45
2021/12/10 12:45:17;;;;;;;4.18;2.38;;;6.80;99.90;;;;;;5074322;28;20045;-45
2021/12/10 12:47:49;;;;;;;2.35;1.58;;;6.80;99.90;;;;;;5074166;28;20036;-45
2021/12/10 12:50:19;;;;;;;5.18;2.20;;;6.80;99.90;;;;;;5073355;28;20021;-43
2021/12/10 12:52:50;;;;;;;5.68;3.08;;;6.80;99.90;;;;;;5074102;28;20475;-44
2021/12/10 12:55:29;;;;;;;3.03;2.67;;;6.70;99.90;;;;;;5076310;28;20040;-45
2021/12/10 12:58:10;;;;;;;4.45;2.08;;;6.70;99.90;;;;;;5093856;28;20074;-44
2021/12/10 13:00:54;;;;;;;4.80;1.92;;;6.70;99.90;;;;;;5091945;28;20035;-45
2021/12/10 13:03:50;;;;;;;5.50;2.60;;;6.70;99.90;;;;;;5084170;28;20024;-44
2021/12/10 13:06:22;;;;;;;4.57;2.20;;;6.60;99.90;;;;;;5090128;28;20115;-44
2021/12/10 13:09:06;;;;;;;10.65;2.42;;;6.60;99.90;;;;;;5092156;28;20108;-44
2021/12/10 13:12:25;;;;;;;4.53;1.95;;;6.60;99.90;;;;;;5091637;28;20027;-43
2021/12/10 13:14:57;;;;;;;7.47;2.25;;;6.60;99.90;;;;;;5082134;28;20394;-42
2021/12/10 13:17:35;;;;;;;5.53;2.20;;;6.60;99.90;;;;;;5091008;28;20515;-42